sensor_id;sensor_type;location;lat;lon;timestamp;temperature;humidity
5846;DHT22;2949;50.778;7.094;2023-02-28T00:00:48;-1.90;99.90
5846;DHT22;2949;50.778;7.094;2023-02-28T00:03:14;-2.00;99.90
5846;DHT22;2949;50.778;7.094;2023-02-28T00:05:39;-2.00;99.90
5846;DHT22;2949;50.778;7.094;2023-02-28T00:08:05;-2.00;99.90
5846;DHT22;2949;50.778;7.094;2023-02-28T00:10:31;-2.00;99.90
5846;DHT22;2949;50.778;7.094;2023-02-28T00:13:01;-2.00;99.90
5846;DHT22;2949;50.778;7.094;2023-02-28T00:15:27;-2.10;99.90
5846;DHT22;2949;50.778;7.094;2023-02-28T00:17:53;-2.00;99.90
5846;DHT22;2949;50.778;7.094;2023-02-28T00:20:19;-2.10;99.90
5846;DHT22;2949;50.778;7.094;2023-02-28T00:22:47;-2.10;99.90
5846;DHT22;2949;50.778;7.094;2023-02-28T00:25:16;-2.20;99.90
5846;DHT22;2949;50.778;7.094;2023-02-28T00:27:42;-2.30;99.90
5846;DHT22;2949;50.778;7.094;2023-02-28T00:30:11;-2.40;99.90
5846;DHT22;2949;50.778;7.094;2023-02-28T00:32:37;-2.50;99.90
5846;DHT22;2949;50.778;7.094;2023-02-28T00:35:02;-2.50;99.90
5846;DHT22;2949;50.778;7.094;2023-02-28T00:37:28;-2.50;99.90
5846;DHT22;2949;50.778;7.094;2023-02-28T00:39:54;-2.40;99.90
5846;DHT22;2949;50.778;7.094;2023-02-28T00:42:19;-2.30;99.90
5846;DHT22;2949;50.778;7.094;2023-02-28T00:44:45;-2.20;99.90
5846;DHT22;2949;50.778;7.094;2023-02-28T00:47:10;-2.20;99.90
5846;DHT22;2949;50.778;7.094;2023-02-28T00:49:36;-2.10;99.90
5846;DHT22;2949;50.778;7.094;2023-02-28T00:52:01;-2.10;99.90
5846;DHT22;2949;50.778;7.094;2023-02-28T00:54:27;-2.00;99.90
5846;DHT22;2949;50.778;7.094;2023-02-28T00:56:52;-2.00;99.90
5846;DHT22;2949;50.778;7.094;2023-02-28T00:59:18;-1.90;99.90
5846;DHT22;2949;50.778;7.094;2023-02-28T01:01:45;-1.80;99.90
5846;DHT22;2949;50.778;7.094;2023-02-28T01:04:11;-1.80;99.90
5846;DHT22;2949;50.778;7.094;2023-02-28T01:06:37;-1.90;99.90
5846;DHT22;2949;50.778;7.094;2023-02-28T01:09:04;-2.00;99.90
5846;DHT22;2949;50.778;7.094;2023-02-28T01:11:30;-2.10;99.90
5846;DHT22;2949;50.778;7.094;2023-02-28T01:13:56;-2.30;99.90
5846;DHT22;2949;50.778;7.094;2023-02-28T01:16:22;-2.50;99.90
5846;DHT22;2949;50.778;7.094;2023-02-28T01:18:48;-2.60;99.90
5846;DHT22;2949;50.778;7.094;2023-02-28T01:21:16;-2.70;99.90
5846;DHT22;2949;50.778;7.094;2023-02-28T01:23:42;-2.70;99.90
5846;DHT22;2949;50.778;7.094;2023-02-28T01:26:14;-2.80;99.90
5846;DHT22;2949;50.778;7.094;2023-02-28T01:28:40;-2.80;99.90
5846;DHT22;2949;50.778;7.094;2023-02-28T01:31:05;-2.90;99.90
5846;DHT22;2949;50.778;7.094;2023-02-28T01:33:32;-2.90;99.90
5846;DHT22;2949;50.778;7.094;2023-02-28T01:38:34;-3.00;99.90
5846;DHT22;2949;50.778;7.094;2023-02-28T01:41:00;-3.00;99.90
5846;DHT22;2949;50.778;7.094;2023-02-28T01:43:31;-3.00;99.90
5846;DHT22;2949;50.778;7.094;2023-02-28T01:45:58;-2.90;99.90
5846;DHT22;2949;50.778;7.094;2023-02-28T01:48:32;-2.90;99.90
5846;DHT22;2949;50.778;7.094;2023-02-28T01:51:02;-2.90;99.90
5846;DHT22;2949;50.778;7.094;2023-02-28T01:53:35;-2.90;99.90
5846;DHT22;2949;50.778;7.094;2023-02-28T01:56:03;-2.90;99.90
5846;DHT22;2949;50.778;7.094;2023-02-28T01:58:31;-2.90;99.90
5846;DHT22;2949;50.778;7.094;2023-02-28T02:00:57;-2.90;99.90
5846;DHT22;2949;50.778;7.094;2023-02-28T02:03:23;-3.00;99.90
5846;DHT22;2949;50.778;7.094;2023-02-28T02:05:48;-3.10;99.90
5846;DHT22;2949;50.778;7.094;2023-02-28T02:08:20;-3.30;99.90
5846;DHT22;2949;50.778;7.094;2023-02-28T02:10:49;-3.40;99.90
5846;DHT22;2949;50.778;7.094;2023-02-28T02:14:21;-3.50;99.90
5846;DHT22;2949;50.778;7.094;2023-02-28T02:27:46;-3.50;99.90
5846;DHT22;2949;50.778;7.094;2023-02-28T02:33:09;-3.50;99.90
5846;DHT22;2949;50.778;7.094;2023-02-28T02:35:52;-3.60;99.90
5846;DHT22;2949;50.778;7.094;2023-02-28T02:38:47;-3.80;99.90
5846;DHT22;2949;50.778;7.094;2023-02-28T02:43:48;-3.90;99.90
5846;DHT22;2949;50.778;7.094;2023-02-28T02:48:56;-4.00;99.90
5846;DHT22;2949;50.778;7.094;2023-02-28T02:51:23;-4.00;99.90
5846;DHT22;2949;50.778;7.094;2023-02-28T02:56:30;-4.10;99.90
5846;DHT22;2949;50.778;7.094;2023-02-28T02:59:00;-4.20;99.90
5846;DHT22;2949;50.778;7.094;2023-02-28T03:01:27;-4.20;99.90
5846;DHT22;2949;50.778;7.094;2023-02-28T03:03:57;-4.20;99.90
5846;DHT22;2949;50.778;7.094;2023-02-28T03:06:24;-4.30;99.90
5846;DHT22;2949;50.778;7.094;2023-02-28T03:08:49;-4.20;99.90
5846;DHT22;2949;50.778;7.094;2023-02-28T03:11:15;-4.20;99.90
5846;DHT22;2949;50.778;7.094;2023-02-28T03:16:35;-4.20;99.90
5846;DHT22;2949;50.778;7.094;2023-02-28T03:30:06;-4.30;99.90
5846;DHT22;2949;50.778;7.094;2023-02-28T03:32:52;-4.30;99.90
5846;DHT22;2949;50.778;7.094;2023-02-28T03:35:24;-4.30;99.90
5846;DHT22;2949;50.778;7.094;2023-02-28T03:37:55;-4.30;99.90
5846;DHT22;2949;50.778;7.094;2023-02-28T03:40:27;-4.30;99.90
5846;DHT22;2949;50.778;7.094;2023-02-28T03:42:59;-4.30;99.90
5846;DHT22;2949;50.778;7.094;2023-02-28T03:45:30;-4.40;99.90
5846;DHT22;2949;50.778;7.094;2023-02-28T03:48:02;-4.40;99.90
5846;DHT22;2949;50.778;7.094;2023-02-28T03:50:45;-4.40;99.90
5846;DHT22;2949;50.778;7.094;2023-02-28T03:53:35;-4.40;99.90
5846;DHT22;2949;50.778;7.094;2023-02-28T03:56:17;-4.40;99.90
5846;DHT22;2949;50.778;7.094;2023-02-28T03:58:55;-4.40;99.90
5846;DHT22;2949;50.778;7.094;2023-02-28T04:01:41;-4.40;99.90
5846;DHT22;2949;50.778;7.094;2023-02-28T04:04:08;-4.40;99.90
5846;DHT22;2949;50.778;7.094;2023-02-28T04:06:35;-4.40;99.90
5846;DHT22;2949;50.778;7.094;2023-02-28T04:09:02;-4.40;99.90
5846;DHT22;2949;50.778;7.094;2023-02-28T04:11:39;-4.40;99.90
5846;DHT22;2949;50.778;7.094;2023-02-28T04:14:06;-4.40;99.90
5846;DHT22;2949;50.778;7.094;2023-02-28T04:16:34;-4.50;99.90
5846;DHT22;2949;50.778;7.094;2023-02-28T04:19:00;-4.50;99.90
5846;DHT22;2949;50.778;7.094;2023-02-28T04:21:31;-4.50;99.90
5846;DHT22;2949;50.778;7.094;2023-02-28T04:23:57;-4.50;99.90
5846;DHT22;2949;50.778;7.094;2023-02-28T04:26:28;-4.50;99.90
5846;DHT22;2949;50.778;7.094;2023-02-28T04:28:54;-4.50;99.90
5846;DHT22;2949;50.778;7.094;2023-02-28T04:31:19;-4.50;99.90
5846;DHT22;2949;50.778;7.094;2023-02-28T04:33:44;-4.50;99.90
5846;DHT22;2949;50.778;7.094;2023-02-28T04:36:10;-4.50;99.90
5846;DHT22;2949;50.778;7.094;2023-02-28T04:38:37;-4.50;99.90
5846;DHT22;2949;50.778;7.094;2023-02-28T04:41:04;-4.60;99.90
5846;DHT22;2949;50.778;7.094;2023-02-28T04:43:31;-4.60;99.90
5846;DHT22;2949;50.778;7.094;2023-02-28T04:45:58;-4.60;99.90
5846;DHT22;2949;50.778;7.094;2023-02-28T04:48:27;-4.40;99.90
5846;DHT22;2949;50.778;7.094;2023-02-28T04:50:53;-4.20;99.90
5846;DHT22;2949;50.778;7.094;2023-02-28T04:53:19;-3.90;99.90
5846;DHT22;2949;50.778;7.094;2023-02-28T04:55:45;-3.70;99.90
5846;DHT22;2949;50.778;7.094;2023-02-28T04:58:11;-3.60;99.90
5846;DHT22;2949;50.778;7.094;2023-02-28T05:00:37;-3.60;99.90
5846;DHT22;2949;50.778;7.094;2023-02-28T05:03:02;-3.60;99.90
5846;DHT22;2949;50.778;7.094;2023-02-28T05:05:28;-3.70;99.90
5846;DHT22;2949;50.778;7.094;2023-02-28T05:07:54;-3.60;99.90
5846;DHT22;2949;50.778;7.094;2023-02-28T05:10:21;-3.60;99.90
5846;DHT22;2949;50.778;7.094;2023-02-28T05:12:46;-3.70;99.90
5846;DHT22;2949;50.778;7.094;2023-02-28T05:15:13;-3.70;99.90
5846;DHT22;2949;50.778;7.094;2023-02-28T05:17:40;-3.80;99.90
5846;DHT22;2949;50.778;7.094;2023-02-28T05:20:06;-3.80;99.90
5846;DHT22;2949;50.778;7.094;2023-02-28T05:22:32;-3.90;99.90
5846;DHT22;2949;50.778;7.094;2023-02-28T05:24:58;-3.90;99.90
5846;DHT22;2949;50.778;7.094;2023-02-28T05:27:23;-3.80;99.90
5846;DHT22;2949;50.778;7.094;2023-02-28T05:29:49;-3.70;99.90
5846;DHT22;2949;50.778;7.094;2023-02-28T05:32:14;-3.70;99.90
5846;DHT22;2949;50.778;7.094;2023-02-28T05:34:41;-3.50;99.90
5846;DHT22;2949;50.778;7.094;2023-02-28T05:37:12;-3.40;99.90
5846;DHT22;2949;50.778;7.094;2023-02-28T05:39:38;-3.30;99.90
5846;DHT22;2949;50.778;7.094;2023-02-28T05:42:04;-3.20;99.90
5846;DHT22;2949;50.778;7.094;2023-02-28T05:44:30;-3.10;99.90
5846;DHT22;2949;50.778;7.094;2023-02-28T05:46:55;-3.00;99.90
5846;DHT22;2949;50.778;7.094;2023-02-28T05:49:21;-2.90;99.90
5846;DHT22;2949;50.778;7.094;2023-02-28T05:51:47;-2.80;99.90
5846;DHT22;2949;50.778;7.094;2023-02-28T05:54:12;-2.70;99.90
5846;DHT22;2949;50.778;7.094;2023-02-28T05:56:38;-2.70;99.90
5846;DHT22;2949;50.778;7.094;2023-02-28T05:59:05;-2.70;99.90
5846;DHT22;2949;50.778;7.094;2023-02-28T06:01:42;-2.70;99.90
5846;DHT22;2949;50.778;7.094;2023-02-28T06:04:10;-2.70;99.90
5846;DHT22;2949;50.778;7.094;2023-02-28T06:06:36;-2.70;99.90
5846;DHT22;2949;50.778;7.094;2023-02-28T06:09:05;-2.70;99.90
5846;DHT22;2949;50.778;7.094;2023-02-28T06:11:31;-2.70;99.90
5846;DHT22;2949;50.778;7.094;2023-02-28T06:13:58;-2.70;99.90
5846;DHT22;2949;50.778;7.094;2023-02-28T06:16:25;-2.70;99.90
5846;DHT22;2949;50.778;7.094;2023-02-28T06:18:51;-2.60;99.90
5846;DHT22;2949;50.778;7.094;2023-02-28T06:21:18;-2.70;99.90
5846;DHT22;2949;50.778;7.094;2023-02-28T06:23:44;-2.70;99.90
5846;DHT22;2949;50.778;7.094;2023-02-28T06:26:10;-2.90;99.90
5846;DHT22;2949;50.778;7.094;2023-02-28T06:28:36;-3.00;99.90
5846;DHT22;2949;50.778;7.094;2023-02-28T06:31:06;-3.20;99.90
5846;DHT22;2949;50.778;7.094;2023-02-28T06:33:33;-3.30;99.90
5846;DHT22;2949;50.778;7.094;2023-02-28T06:35:58;-3.40;99.90
5846;DHT22;2949;50.778;7.094;2023-02-28T06:38:24;-3.40;99.90
5846;DHT22;2949;50.778;7.094;2023-02-28T06:40:54;-3.40;99.90
5846;DHT22;2949;50.778;7.094;2023-02-28T06:43:20;-3.40;99.90
5846;DHT22;2949;50.778;7.094;2023-02-28T06:45:45;-3.50;99.90
5846;DHT22;2949;50.778;7.094;2023-02-28T06:48:11;-3.50;99.90
5846;DHT22;2949;50.778;7.094;2023-02-28T06:50:36;-3.40;99.90
5846;DHT22;2949;50.778;7.094;2023-02-28T06:53:02;-3.40;99.90
5846;DHT22;2949;50.778;7.094;2023-02-28T06:55:28;-3.30;99.90
5846;DHT22;2949;50.778;7.094;2023-02-28T06:57:53;-3.30;99.90
5846;DHT22;2949;50.778;7.094;2023-02-28T07:00:20;-3.20;99.90
5846;DHT22;2949;50.778;7.094;2023-02-28T07:02:46;-3.00;99.90
5846;DHT22;2949;50.778;7.094;2023-02-28T07:05:12;-2.80;99.90
5846;DHT22;2949;50.778;7.094;2023-02-28T07:07:38;-2.40;99.90
5846;DHT22;2949;50.778;7.094;2023-02-28T07:10:09;-1.90;99.90
5846;DHT22;2949;50.778;7.094;2023-02-28T07:12:36;0.30;99.90
5846;DHT22;2949;50.778;7.094;2023-02-28T07:15:03;3.60;99.90
5846;DHT22;2949;50.778;7.094;2023-02-28T07:17:29;6.50;99.90
5846;DHT22;2949;50.778;7.094;2023-02-28T07:19:54;8.70;99.90
5846;DHT22;2949;50.778;7.094;2023-02-28T07:22:20;10.00;96.70
5846;DHT22;2949;50.778;7.094;2023-02-28T07:24:45;11.10;92.30
5846;DHT22;2949;50.778;7.094;2023-02-28T07:27:11;12.20;84.00
5846;DHT22;2949;50.778;7.094;2023-02-28T07:29:36;13.40;76.30
5846;DHT22;2949;50.778;7.094;2023-02-28T07:32:03;14.40;70.00
5846;DHT22;2949;50.778;7.094;2023-02-28T07:34:29;15.00;62.70
5846;DHT22;2949;50.778;7.094;2023-02-28T07:36:54;15.60;57.20
5846;DHT22;2949;50.778;7.094;2023-02-28T07:39:21;15.90;53.40
5846;DHT22;2949;50.778;7.094;2023-02-28T07:41:47;16.20;52.50
5846;DHT22;2949;50.778;7.094;2023-02-28T07:44:13;16.50;49.90
5846;DHT22;2949;50.778;7.094;2023-02-28T07:46:38;16.60;49.00
5846;DHT22;2949;50.778;7.094;2023-02-28T07:49:04;16.50;47.00
5846;DHT22;2949;50.778;7.094;2023-02-28T07:51:30;16.70;47.50
5846;DHT22;2949;50.778;7.094;2023-02-28T07:53:57;17.10;46.20
5846;DHT22;2949;50.778;7.094;2023-02-28T07:56:22;17.00;44.30
5846;DHT22;2949;50.778;7.094;2023-02-28T07:58:48;17.00;44.50
5846;DHT22;2949;50.778;7.094;2023-02-28T08:01:14;17.30;44.40
5846;DHT22;2949;50.778;7.094;2023-02-28T08:03:40;17.50;43.20
5846;DHT22;2949;50.778;7.094;2023-02-28T08:06:07;17.50;42.60
5846;DHT22;2949;50.778;7.094;2023-02-28T08:08:34;17.80;41.60
5846;DHT22;2949;50.778;7.094;2023-02-28T08:11:00;17.80;40.70
5846;DHT22;2949;50.778;7.094;2023-02-28T08:13:27;17.90;40.20
5846;DHT22;2949;50.778;7.094;2023-02-28T08:15:54;17.70;40.10
5846;DHT22;2949;50.778;7.094;2023-02-28T08:18:20;18.10;39.90
5846;DHT22;2949;50.778;7.094;2023-02-28T08:20:45;17.90;39.10
5846;DHT22;2949;50.778;7.094;2023-02-28T08:23:11;17.80;39.70
5846;DHT22;2949;50.778;7.094;2023-02-28T08:25:36;18.30;38.80
5846;DHT22;2949;50.778;7.094;2023-02-28T08:28:02;17.10;37.60
5846;DHT22;2949;50.778;7.094;2023-02-28T08:30:27;15.30;38.40
5846;DHT22;2949;50.778;7.094;2023-02-28T08:32:53;14.40;39.20
5846;DHT22;2949;50.778;7.094;2023-02-28T08:35:19;13.80;40.10
5846;DHT22;2949;50.778;7.094;2023-02-28T08:37:47;14.40;40.30
5846;DHT22;2949;50.778;7.094;2023-02-28T08:40:13;14.80;40.10
5846;DHT22;2949;50.778;7.094;2023-02-28T08:42:46;15.60;38.60
5846;DHT22;2949;50.778;7.094;2023-02-28T08:45:12;15.90;37.10
5846;DHT22;2949;50.778;7.094;2023-02-28T08:47:38;15.70;36.30
5846;DHT22;2949;50.778;7.094;2023-02-28T08:50:04;15.30;36.40
5846;DHT22;2949;50.778;7.094;2023-02-28T08:52:30;15.70;36.00
5846;DHT22;2949;50.778;7.094;2023-02-28T08:54:56;15.80;36.50
5846;DHT22;2949;50.778;7.094;2023-02-28T08:57:21;16.10;36.10
5846;DHT22;2949;50.778;7.094;2023-02-28T08:59:47;16.40;35.20
5846;DHT22;2949;50.778;7.094;2023-02-28T09:02:13;16.40;34.10
5846;DHT22;2949;50.778;7.094;2023-02-28T09:04:40;16.60;33.90
5846;DHT22;2949;50.778;7.094;2023-02-28T09:07:05;16.50;34.10
5846;DHT22;2949;50.778;7.094;2023-02-28T09:09:31;16.30;33.20
5846;DHT22;2949;50.778;7.094;2023-02-28T09:11:57;16.20;33.50
5846;DHT22;2949;50.778;7.094;2023-02-28T09:14:22;16.30;33.70
5846;DHT22;2949;50.778;7.094;2023-02-28T09:16:48;16.30;33.40
5846;DHT22;2949;50.778;7.094;2023-02-28T09:19:14;16.50;32.90
5846;DHT22;2949;50.778;7.094;2023-02-28T09:21:40;16.80;32.70
5846;DHT22;2949;50.778;7.094;2023-02-28T09:24:06;17.00;31.80
5846;DHT22;2949;50.778;7.094;2023-02-28T09:26:32;16.50;32.20
5846;DHT22;2949;50.778;7.094;2023-02-28T09:28:58;16.30;31.80
5846;DHT22;2949;50.778;7.094;2023-02-28T09:31:27;15.70;33.00
5846;DHT22;2949;50.778;7.094;2023-02-28T09:33:54;15.60;32.80
5846;DHT22;2949;50.778;7.094;2023-02-28T09:36:22;15.70;31.30
5846;DHT22;2949;50.778;7.094;2023-02-28T09:38:48;15.70;31.80
5846;DHT22;2949;50.778;7.094;2023-02-28T09:41:20;15.80;32.10
5846;DHT22;2949;50.778;7.094;2023-02-28T09:43:49;15.20;31.00
5846;DHT22;2949;50.778;7.094;2023-02-28T09:47:01;14.00;32.60
5846;DHT22;2949;50.778;7.094;2023-02-28T09:49:12;14.40;33.10
5846;DHT22;2949;50.778;7.094;2023-02-28T09:51:47;14.90;32.70
5846;DHT22;2949;50.778;7.094;2023-02-28T09:54:19;15.10;31.70
5846;DHT22;2949;50.778;7.094;2023-02-28T09:56:58;14.70;31.70
5846;DHT22;2949;50.778;7.094;2023-02-28T10:02:14;13.70;32.80
5846;DHT22;2949;50.778;7.094;2023-02-28T10:07:41;14.00;31.90
5846;DHT22;2949;50.778;7.094;2023-02-28T10:10:32;14.20;32.20
5846;DHT22;2949;50.778;7.094;2023-02-28T10:13:00;14.60;31.70
5846;DHT22;2949;50.778;7.094;2023-02-28T10:15:30;14.00;31.80
5846;DHT22;2949;50.778;7.094;2023-02-28T10:18:00;14.00;32.00
5846;DHT22;2949;50.778;7.094;2023-02-28T10:20:28;13.70;32.50
5846;DHT22;2949;50.778;7.094;2023-02-28T10:23:02;14.00;32.40
5846;DHT22;2949;50.778;7.094;2023-02-28T10:25:35;14.10;32.30
5846;DHT22;2949;50.778;7.094;2023-02-28T10:28:09;15.00;31.50
5846;DHT22;2949;50.778;7.094;2023-02-28T10:30:39;14.80;30.90
5846;DHT22;2949;50.778;7.094;2023-02-28T10:33:05;14.40;31.10
5846;DHT22;2949;50.778;7.094;2023-02-28T10:35:31;14.30;31.30
5846;DHT22;2949;50.778;7.094;2023-02-28T10:38:00;14.80;31.30
5846;DHT22;2949;50.778;7.094;2023-02-28T10:40:34;15.50;31.20
5846;DHT22;2949;50.778;7.094;2023-02-28T10:43:05;14.60;29.80
5846;DHT22;2949;50.778;7.094;2023-02-28T10:45:35;14.80;31.20
5846;DHT22;2949;50.778;7.094;2023-02-28T10:53:17;12.80;31.20
5846;DHT22;2949;50.778;7.094;2023-02-28T10:56:01;12.70;32.20
5846;DHT22;2949;50.778;7.094;2023-02-28T10:58:31;13.50;31.40
5846;DHT22;2949;50.778;7.094;2023-02-28T11:00:58;13.80;30.50
5846;DHT22;2949;50.778;7.094;2023-02-28T11:03:34;12.50;31.30
5846;DHT22;2949;50.778;7.094;2023-02-28T11:06:07;12.20;32.70
5846;DHT22;2949;50.778;7.094;2023-02-28T11:08:34;12.60;32.90
5846;DHT22;2949;50.778;7.094;2023-02-28T11:11:04;12.70;31.50
5846;DHT22;2949;50.778;7.094;2023-02-28T11:13:34;12.80;31.50
5846;DHT22;2949;50.778;7.094;2023-02-28T11:16:04;12.60;31.70
5846;DHT22;2949;50.778;7.094;2023-02-28T11:18:38;12.10;31.90
5846;DHT22;2949;50.778;7.094;2023-02-28T11:21:06;11.90;33.00
5846;DHT22;2949;50.778;7.094;2023-02-28T11:23:34;10.30;33.60
5846;DHT22;2949;50.778;7.094;2023-02-28T11:26:03;8.70;36.90
5846;DHT22;2949;50.778;7.094;2023-02-28T11:28:36;7.70;37.20
5846;DHT22;2949;50.778;7.094;2023-02-28T11:33:37;6.70;40.40
5846;DHT22;2949;50.778;7.094;2023-02-28T11:36:19;6.40;41.10
5846;DHT22;2949;50.778;7.094;2023-02-28T11:38:45;6.20;42.20
5846;DHT22;2949;50.778;7.094;2023-02-28T11:59:02;6.40;44.70
5846;DHT22;2949;50.778;7.094;2023-02-28T12:04:25;6.20;45.00
5846;DHT22;2949;50.778;7.094;2023-02-28T12:07:18;6.10;46.00
5846;DHT22;2949;50.778;7.094;2023-02-28T12:10:11;6.30;45.20
5846;DHT22;2949;50.778;7.094;2023-02-28T12:13:04;6.20;44.50
5846;DHT22;2949;50.778;7.094;2023-02-28T12:24:32;6.10;45.70
5846;DHT22;2949;50.778;7.094;2023-02-28T12:27:09;6.20;45.80
5846;DHT22;2949;50.778;7.094;2023-02-28T12:29:55;6.30;46.50
5846;DHT22;2949;50.778;7.094;2023-02-28T12:32:30;6.30;46.80
5846;DHT22;2949;50.778;7.094;2023-02-28T12:35:12;6.30;47.80
5846;DHT22;2949;50.778;7.094;2023-02-28T12:38:04;6.30;48.10
5846;DHT22;2949;50.778;7.094;2023-02-28T12:40:59;6.10;47.60
5846;DHT22;2949;50.778;7.094;2023-02-28T12:43:30;6.20;47.80
5846;DHT22;2949;50.778;7.094;2023-02-28T12:46:00;6.30;48.20
5846;DHT22;2949;50.778;7.094;2023-02-28T12:48:43;6.10;48.10
5846;DHT22;2949;50.778;7.094;2023-02-28T12:51:12;6.10;46.80
5846;DHT22;2949;50.778;7.094;2023-02-28T12:59:45;5.90;48.10
5846;DHT22;2949;50.778;7.094;2023-02-28T13:05:29;6.00;48.40
5846;DHT22;2949;50.778;7.094;2023-02-28T13:08:07;6.00;49.00
5846;DHT22;2949;50.778;7.094;2023-02-28T13:13:18;6.00;49.00
5846;DHT22;2949;50.778;7.094;2023-02-28T13:16:19;6.00;50.60
5846;DHT22;2949;50.778;7.094;2023-02-28T13:18:46;6.00;51.20
5846;DHT22;2949;50.778;7.094;2023-02-28T13:21:26;6.20;49.40
5846;DHT22;2949;50.778;7.094;2023-02-28T13:26:23;6.00;48.70
5846;DHT22;2949;50.778;7.094;2023-02-28T13:31:14;6.00;48.90
5846;DHT22;2949;50.778;7.094;2023-02-28T13:38:56;5.90;52.20
5846;DHT22;2949;50.778;7.094;2023-02-28T13:44:04;6.10;51.70
5846;DHT22;2949;50.778;7.094;2023-02-28T13:46:32;6.10;50.50
5846;DHT22;2949;50.778;7.094;2023-02-28T13:49:23;6.20;51.40
5846;DHT22;2949;50.778;7.094;2023-02-28T13:52:20;6.20;52.10
5846;DHT22;2949;50.778;7.094;2023-02-28T13:55:14;6.30;49.70
5846;DHT22;2949;50.778;7.094;2023-02-28T14:05:41;6.10;51.80
5846;DHT22;2949;50.778;7.094;2023-02-28T14:08:22;6.10;50.50
5846;DHT22;2949;50.778;7.094;2023-02-28T14:11:08;6.00;50.60
5846;DHT22;2949;50.778;7.094;2023-02-28T14:13:43;6.10;50.60
5846;DHT22;2949;50.778;7.094;2023-02-28T14:16:24;6.20;50.00
5846;DHT22;2949;50.778;7.094;2023-02-28T14:19:05;6.20;51.90
5846;DHT22;2949;50.778;7.094;2023-02-28T14:21:36;6.20;50.10
5846;DHT22;2949;50.778;7.094;2023-02-28T14:30:43;6.30;51.30
5846;DHT22;2949;50.778;7.094;2023-02-28T14:36:04;6.20;50.70
5846;DHT22;2949;50.778;7.094;2023-02-28T14:38:37;6.20;51.30
5846;DHT22;2949;50.778;7.094;2023-02-28T14:41:14;6.10;51.20
5846;DHT22;2949;50.778;7.094;2023-02-28T14:43:50;6.00;51.90
5846;DHT22;2949;50.778;7.094;2023-02-28T14:46:17;6.00;52.50
5846;DHT22;2949;50.778;7.094;2023-02-28T14:48:48;6.00;52.60
5846;DHT22;2949;50.778;7.094;2023-02-28T14:51:20;6.10;53.50
5846;DHT22;2949;50.778;7.094;2023-02-28T14:53:52;6.10;52.90
5846;DHT22;2949;50.778;7.094;2023-02-28T14:56:22;6.20;53.00
5846;DHT22;2949;50.778;7.094;2023-02-28T14:58:55;6.20;52.80
5846;DHT22;2949;50.778;7.094;2023-02-28T15:01:23;6.20;52.70
5846;DHT22;2949;50.778;7.094;2023-02-28T15:03:57;6.20;51.60
5846;DHT22;2949;50.778;7.094;2023-02-28T15:06:23;6.20;52.10
5846;DHT22;2949;50.778;7.094;2023-02-28T15:09:10;6.20;52.00
5846;DHT22;2949;50.778;7.094;2023-02-28T15:11:37;6.20;51.50
5846;DHT22;2949;50.778;7.094;2023-02-28T15:14:04;6.20;51.40
5846;DHT22;2949;50.778;7.094;2023-02-28T15:16:37;6.20;51.80
5846;DHT22;2949;50.778;7.094;2023-02-28T15:19:11;6.10;51.90
5846;DHT22;2949;50.778;7.094;2023-02-28T15:21:43;6.00;51.90
5846;DHT22;2949;50.778;7.094;2023-02-28T15:24:15;6.00;52.70
5846;DHT22;2949;50.778;7.094;2023-02-28T15:26:51;6.00;53.00
5846;DHT22;2949;50.778;7.094;2023-02-28T15:29:21;6.00;53.00
5846;DHT22;2949;50.778;7.094;2023-02-28T15:34:25;5.90;53.40
5846;DHT22;2949;50.778;7.094;2023-02-28T15:36:52;5.80;52.80
5846;DHT22;2949;50.778;7.094;2023-02-28T15:39:24;5.80;53.40
5846;DHT22;2949;50.778;7.094;2023-02-28T15:41:49;5.80;53.10
5846;DHT22;2949;50.778;7.094;2023-02-28T15:44:29;5.80;54.50
5846;DHT22;2949;50.778;7.094;2023-02-28T15:47:03;5.80;53.80
5846;DHT22;2949;50.778;7.094;2023-02-28T15:49:54;5.80;55.00
5846;DHT22;2949;50.778;7.094;2023-02-28T15:52:28;5.80;54.90
5846;DHT22;2949;50.778;7.094;2023-02-28T15:54:56;5.80;53.20
5846;DHT22;2949;50.778;7.094;2023-02-28T15:57:25;5.80;54.30
5846;DHT22;2949;50.778;7.094;2023-02-28T15:59:56;5.70;54.50
5846;DHT22;2949;50.778;7.094;2023-02-28T16:04:59;5.60;55.80
5846;DHT22;2949;50.778;7.094;2023-02-28T16:07:26;5.70;55.80
5846;DHT22;2949;50.778;7.094;2023-02-28T16:09:52;5.70;56.10
5846;DHT22;2949;50.778;7.094;2023-02-28T16:12:19;5.60;56.40
5846;DHT22;2949;50.778;7.094;2023-02-28T16:14:52;5.70;56.50
5846;DHT22;2949;50.778;7.094;2023-02-28T16:17:26;5.70;56.00
5846;DHT22;2949;50.778;7.094;2023-02-28T16:19:53;5.80;56.30
5846;DHT22;2949;50.778;7.094;2023-02-28T16:22:19;5.70;56.50
5846;DHT22;2949;50.778;7.094;2023-02-28T16:24:44;5.70;57.70
5846;DHT22;2949;50.778;7.094;2023-02-28T16:27:31;5.80;56.30
5846;DHT22;2949;50.778;7.094;2023-02-28T16:29:57;5.80;55.00
5846;DHT22;2949;50.778;7.094;2023-02-28T16:32:23;5.70;54.80
5846;DHT22;2949;50.778;7.094;2023-02-28T16:34:48;5.60;54.70
5846;DHT22;2949;50.778;7.094;2023-02-28T16:37:16;5.60;55.00
5846;DHT22;2949;50.778;7.094;2023-02-28T16:39:43;5.50;56.20
5846;DHT22;2949;50.778;7.094;2023-02-28T16:42:23;5.30;56.80
5846;DHT22;2949;50.778;7.094;2023-02-28T16:44:50;5.10;57.90
5846;DHT22;2949;50.778;7.094;2023-02-28T16:47:16;5.00;58.60
5846;DHT22;2949;50.778;7.094;2023-02-28T16:49:42;4.80;59.40
5846;DHT22;2949;50.778;7.094;2023-02-28T16:52:09;4.70;60.60
5846;DHT22;2949;50.778;7.094;2023-02-28T16:54:35;4.50;61.80
5846;DHT22;2949;50.778;7.094;2023-02-28T16:57:01;4.40;63.20
5846;DHT22;2949;50.778;7.094;2023-02-28T16:59:27;4.20;64.20
5846;DHT22;2949;50.778;7.094;2023-02-28T17:01:54;4.20;64.30
5846;DHT22;2949;50.778;7.094;2023-02-28T17:04:23;4.10;65.10
5846;DHT22;2949;50.778;7.094;2023-02-28T17:06:49;4.00;65.60
5846;DHT22;2949;50.778;7.094;2023-02-28T17:09:18;3.80;66.30
5846;DHT22;2949;50.778;7.094;2023-02-28T17:11:45;3.70;67.70
5846;DHT22;2949;50.778;7.094;2023-02-28T17:14:10;3.70;69.20
5846;DHT22;2949;50.778;7.094;2023-02-28T17:16:37;3.70;70.70
5846;DHT22;2949;50.778;7.094;2023-02-28T17:19:12;3.70;69.80
5846;DHT22;2949;50.778;7.094;2023-02-28T17:21:38;3.60;69.60
5846;DHT22;2949;50.778;7.094;2023-02-28T17:24:04;3.50;70.40
5846;DHT22;2949;50.778;7.094;2023-02-28T17:26:30;3.40;71.10
5846;DHT22;2949;50.778;7.094;2023-02-28T17:28:57;3.20;72.00
5846;DHT22;2949;50.778;7.094;2023-02-28T17:31:24;3.10;73.00
5846;DHT22;2949;50.778;7.094;2023-02-28T17:33:49;2.90;74.10
5846;DHT22;2949;50.778;7.094;2023-02-28T17:36:24;2.80;75.50
5846;DHT22;2949;50.778;7.094;2023-02-28T17:38:51;2.60;77.10
5846;DHT22;2949;50.778;7.094;2023-02-28T17:41:17;2.40;78.70
5846;DHT22;2949;50.778;7.094;2023-02-28T17:43:42;2.20;79.80
5846;DHT22;2949;50.778;7.094;2023-02-28T17:46:16;2.10;81.30
5846;DHT22;2949;50.778;7.094;2023-02-28T17:48:43;2.00;85.50
5846;DHT22;2949;50.778;7.094;2023-02-28T17:51:12;1.90;87.60
5846;DHT22;2949;50.778;7.094;2023-02-28T17:53:37;1.80;88.50
5846;DHT22;2949;50.778;7.094;2023-02-28T17:56:03;1.60;89.00
5846;DHT22;2949;50.778;7.094;2023-02-28T17:58:28;1.50;90.00
5846;DHT22;2949;50.778;7.094;2023-02-28T18:00:56;1.40;90.50
5846;DHT22;2949;50.778;7.094;2023-02-28T18:03:21;1.30;91.10
5846;DHT22;2949;50.778;7.094;2023-02-28T18:05:47;1.30;91.80
5846;DHT22;2949;50.778;7.094;2023-02-28T18:08:13;1.30;93.00
5846;DHT22;2949;50.778;7.094;2023-02-28T18:10:39;1.30;93.00
5846;DHT22;2949;50.778;7.094;2023-02-28T18:13:05;1.30;93.00
5846;DHT22;2949;50.778;7.094;2023-02-28T18:15:31;1.20;93.00
5846;DHT22;2949;50.778;7.094;2023-02-28T18:17:56;1.10;93.20
5846;DHT22;2949;50.778;7.094;2023-02-28T18:20:22;1.00;93.60
5846;DHT22;2949;50.778;7.094;2023-02-28T18:22:47;0.90;94.80
5846;DHT22;2949;50.778;7.094;2023-02-28T18:25:13;0.80;95.60
5846;DHT22;2949;50.778;7.094;2023-02-28T18:27:41;0.80;97.00
5846;DHT22;2949;50.778;7.094;2023-02-28T18:30:19;0.70;97.50